Time;durP1;ratioP1;P1;durP2;ratioP2;P2;SDS_P1;SDS_P2;PMS_P1;PMS_P2;Temp;Humidity;BMP_temperature;BMP_pressure;BME280_temperature;BME280_humidity;BME280_pressure;Samples;Min_cycle;Max_cycle;Signal;HPM_P1;HPM_P2
2023/10/05 00:01:02;;;;;;;5.53;2.70;;;;;;;;;;6240261;23;20023;-73
2023/10/05 00:03:32;;;;;;;6.60;2.38;;;;;;;;;;6190620;23;20047;-75
2023/10/05 00:06:13;;;;;;;3.60;2.60;;;;;;;;;;6165710;23;20098;-76
2023/10/05 00:08:47;;;;;;;3.58;2.35;;;;;;;;;;6242548;23;20008;-74
2023/10/05 00:11:23;;;;;;;5.82;2.60;;;;;;;;;;6241977;22;20115;-76
2023/10/05 00:13:50;;;;;;;7.28;2.55;;;;;;;;;;6241837;22;20509;-75
2023/10/05 00:16:36;;;;;;;3.50;2.55;;;;;;;;;;6241937;22;20005;-74
2023/10/05 00:19:05;;;;;;;2.95;2.30;;;;;;;;;;6240483;23;20091;-72
2023/10/05 00:21:35;;;;;;;6.00;2.55;;;;;;;;;;6242305;23;20016;-74
2023/10/05 00:24:02;;;;;;;5.00;2.63;;;;;;;;;;6242176;23;20019;-75
2023/10/05 00:26:30;;;;;;;3.08;2.58;;;;;;;;;;6240830;23;20048;-73
2023/10/05 00:31:42;;;;;;;4.03;2.42;;;;;;;;;;6242387;23;20023;-75
2023/10/05 00:34:24;;;;;;;5.35;2.67;;;;;;;;;;6242116;22;20047;-75
2023/10/05 00:37:03;;;;;;;4.55;2.53;;;;;;;;;;6239149;23;20502;-75
2023/10/05 00:39:31;;;;;;;8.63;2.47;;;;;;;;;;6214049;23;20012;-74
2023/10/05 00:42:10;;;;;;;7.93;3.45;;;;;;;;;;6165197;23;20584;-75
2023/10/05 00:44:43;;;;;;;9.73;2.92;;;;;;;;;;6192612;23;20548;-74
2023/10/05 00:47:13;;;;;;;2.47;2.22;;;;;;;;;;6241614;22;20023;-75
2023/10/05 00:52:15;;;;;;;4.93;2.83;;;;;;;;;;6215469;23;20078;-76
2023/10/05 00:54:50;;;;;;;6.13;2.40;;;;;;;;;;6241980;23;20004;-74
2023/10/05 00:57:20;;;;;;;4.15;2.47;;;;;;;;;;6167890;23;20016;-74
2023/10/05 00:59:56;;;;;;;4.95;2.50;;;;;;;;;;6243958;23;20042;-74
2023/10/05 01:02:26;;;;;;;5.97;2.40;;;;;;;;;;6242932;23;20086;-74
2023/10/05 01:04:56;;;;;;;5.78;2.60;;;;;;;;;;6217560;23;20012;-74
2023/10/05 01:07:29;;;;;;;3.53;2.80;;;;;;;;;;6193316;23;20051;-75
2023/10/05 01:10:21;;;;;;;4.07;2.50;;;;;;;;;;6243320;22;20047;-73
2023/10/05 01:12:45;;;;;;;4.57;2.55;;;;;;;;;;6242946;23;20015;-74
2023/10/05 01:15:21;;;;;;;7.32;2.70;;;;;;;;;;6217194;23;20019;-75
2023/10/05 01:18:04;;;;;;;3.92;2.50;;;;;;;;;;6243531;22;20512;-74
2023/10/05 01:20:37;;;;;;;2.60;2.20;;;;;;;;;;6242083;23;20020;-75
2023/10/05 01:23:04;;;;;;;3.22;2.22;;;;;;;;;;6191255;23;20094;-76
2023/10/05 01:25:31;;;;;;;7.70;2.83;;;;;;;;;;6192073;23;20020;-75
2023/10/05 01:27:58;;;;;;;2.80;2.30;;;;;;;;;;6241965;23;20059;-73
2023/10/05 01:30:24;;;;;;;3.45;2.22;;;;;;;;;;6241678;23;20039;-75
2023/10/05 01:32:50;;;;;;;5.65;3.00;;;;;;;;;;6241989;23;20016;-75
2023/10/05 01:35:20;;;;;;;4.53;2.70;;;;;;;;;;6243450;23;20401;-75
2023/10/05 01:37:47;;;;;;;4.28;2.50;;;;;;;;;;6216868;23;20047;-75
2023/10/05 01:42:47;;;;;;;2.53;2.33;;;;;;;;;;6242058;23;20330;-75
2023/10/05 01:45:21;;;;;;;2.60;2.40;;;;;;;;;;6243070;22;20039;-75
2023/10/05 01:47:46;;;;;;;2.75;2.47;;;;;;;;;;6242020;23;20445;-74
2023/10/05 01:50:19;;;;;;;5.75;3.00;;;;;;;;;;6216209;23;20078;-75
2023/10/05 01:52:56;;;;;;;4.45;2.45;;;;;;;;;;6243587;22;20008;-76
2023/10/05 01:55:27;;;;;;;7.88;2.40;;;;;;;;;;6218070;23;20058;-71
2023/10/05 01:57:53;;;;;;;;;;;;;;;;;;6216767;23;20023;-75
2023/10/05 02:00:20;;;;;;;5.50;2.30;;;;;;;;;;6241597;23;19994;-76
2023/10/05 02:02:46;;;;;;;4.85;2.40;;;;;;;;;;6241702;23;20105;-75
2023/10/05 02:05:14;;;;;;;3.35;2.40;;;;;;;;;;6242897;23;20012;-75
2023/10/05 02:07:40;;;;;;;4.22;2.38;;;;;;;;;;6241777;23;20012;-73
2023/10/05 02:10:09;;;;;;;6.32;2.72;;;;;;;;;;6215480;23;20102;-75
2023/10/05 02:12:36;;;;;;;4.93;3.20;;;;;;;;;;6243103;22;20046;-75
2023/10/05 02:15:05;;;;;;;6.03;3.00;;;;;;;;;;6241462;23;20016;-75
2023/10/05 02:17:32;;;;;;;6.65;2.88;;;;;;;;;;6243072;23;20342;-74
2023/10/05 02:19:58;;;;;;;3.92;2.90;;;;;;;;;;6242554;22;20016;-75
2023/10/05 02:22:47;;;;;;;5.43;3.47;;;;;;;;;;6241688;23;20081;-74
2023/10/05 02:25:19;;;;;;;5.97;3.55;;;;;;;;;;6242843;23;20479;-73
2023/10/05 02:27:46;;;;;;;4.65;2.88;;;;;;;;;;6242950;23;20099;-74
2023/10/05 02:30:14;;;;;;;5.75;3.67;;;;;;;;;;6240782;22;20085;-74
2023/10/05 02:32:40;;;;;;;6.72;3.63;;;;;;;;;;6216171;23;20007;-74
2023/10/05 02:38:11;;;;;;;4.03;3.45;;;;;;;;;;6149607;23;20017;-74
2023/10/05 02:40:46;;;;;;;4.18;3.25;;;;;;;;;;6124686;23;20045;-74
2023/10/05 02:43:15;;;;;;;4.82;3.35;;;;;;;;;;6174292;23;20111;-76
2023/10/05 02:45:42;;;;;;;7.13;3.42;;;;;;;;;;6242916;23;20016;-75
2023/10/05 02:48:10;;;;;;;4.93;2.92;;;;;;;;;;6227853;23;20008;-76
2023/10/05 02:50:39;;;;;;;3.75;2.72;;;;;;;;;;6259857;22;20031;-76
2023/10/05 02:53:06;;;;;;;4.80;3.08;;;;;;;;;;6256631;23;20030;-76
2023/10/05 02:55:36;;;;;;;3.38;2.80;;;;;;;;;;6241873;23;20897;-76
2023/10/05 02:58:05;;;;;;;7.70;2.92;;;;;;;;;;6217503;23;20008;-75
2023/10/05 03:00:33;;;;;;;2.85;2.55;;;;;;;;;;6241510;23;20031;-76
2023/10/05 03:03:02;;;;;;;3.72;2.67;;;;;;;;;;6242978;23;20428;-76
2023/10/05 03:05:32;;;;;;;6.55;2.80;;;;;;;;;;6242826;22;20022;-78
2023/10/05 03:07:58;;;;;;;4.57;2.67;;;;;;;;;;6241305;23;20352;-76
2023/10/05 03:10:26;;;;;;;3.33;2.40;;;;;;;;;;6241123;23;20055;-74
2023/10/05 03:12:52;;;;;;;5.57;3.00;;;;;;;;;;6242642;22;20008;-75
2023/10/05 03:15:23;;;;;;;7.68;3.28;;;;;;;;;;6240842;23;20016;-77
2023/10/05 03:17:51;;;;;;;3.50;2.72;;;;;;;;;;6241039;23;20023;-76
2023/10/05 03:20:20;;;;;;;3.72;3.28;;;;;;;;;;6215842;23;20119;-77
2023/10/05 03:22:46;;;;;;;4.32;3.30;;;;;;;;;;6216236;23;20012;-76
2023/10/05 03:25:15;;;;;;;6.82;2.67;;;;;;;;;;6240629;23;20580;-76
2023/10/05 03:27:41;;;;;;;4.88;3.13;;;;;;;;;;6242345;22;20050;-76
2023/10/05 03:30:13;;;;;;;6.95;3.70;;;;;;;;;;6214802;23;20082;-74
2023/10/05 03:32:40;;;;;;;4.68;3.90;;;;;;;;;;6215134;23;20024;-74
2023/10/05 03:35:09;;;;;;;3.28;2.95;;;;;;;;;;6241739;22;20061;-74
2023/10/05 03:37:39;;;;;;;4.28;3.45;;;;;;;;;;6241148;23;20483;-76
2023/10/05 03:42:32;;;;;;;8.77;3.75;;;;;;;;;;6241328;23;20086;-74
2023/10/05 03:45:04;;;;;;;7.57;3.05;;;;;;;;;;6240740;23;20444;-75
2023/10/05 03:47:43;;;;;;;5.20;3.53;;;;;;;;;;6240745;23;20019;-75
2023/10/05 03:50:16;;;;;;;5.32;3.28;;;;;;;;;;6239729;23;20094;-74
2023/10/05 03:52:45;;;;;;;5.00;3.13;;;;;;;;;;6240512;23;20040;-76
2023/10/05 03:55:11;;;;;;;3.00;2.80;;;;;;;;;;6239694;23;20364;-75
2023/10/05 03:57:39;;;;;;;3.85;2.88;;;;;;;;;;6216321;23;20015;-76
2023/10/05 04:00:28;;;;;;;4.10;2.97;;;;;;;;;;6190013;23;20023;-77
2023/10/05 04:03:14;;;;;;;5.13;3.25;;;;;;;;;;6239517;23;20016;-78
2023/10/05 04:05:41;;;;;;;4.97;2.47;;;;;;;;;;6190828;23;20044;-77
2023/10/05 04:08:16;;;;;;;4.65;3.20;;;;;;;;;;6242720;22;20012;-76
2023/10/05 04:10:49;;;;;;;3.83;2.88;;;;;;;;;;6242286;23;20023;-77
2023/10/05 04:13:21;;;;;;;8.88;3.00;;;;;;;;;;6190830;23;20461;-78
2023/10/05 04:15:47;;;;;;;3.97;3.25;;;;;;;;;;6242962;22;20012;-77
2023/10/05 04:18:15;;;;;;;2.25;2.10;;;;;;;;;;6242411;22;20022;-80
2023/10/05 04:20:43;;;;;;;4.70;3.33;;;;;;;;;;6240744;23;20043;-80
2023/10/05 04:23:25;;;;;;;3.10;2.80;;;;;;;;;;6243463;23;20012;-76
2023/10/05 04:25:54;;;;;;;6.40;2.83;;;;;;;;;;6242564;23;20464;-78
2023/10/05 04:28:34;;;;;;;2.95;2.75;;;;;;;;;;6239527;23;20008;-78
2023/10/05 04:31:25;;;;;;;4.88;3.17;;;;;;;;;;6220868;22;20054;-78
2023/10/05 04:33:51;;;;;;;3.53;3.20;;;;;;;;;;6216788;23;20322;-76
2023/10/05 04:36:17;;;;;;;2.75;2.55;;;;;;;;;;6241990;23;20031;-77
2023/10/05 04:38:44;;;;;;;3.95;3.22;;;;;;;;;;6242696;23;20361;-76
2023/10/05 04:41:13;;;;;;;6.20;2.88;;;;;;;;;;6243409;22;20004;-77
2023/10/05 04:43:43;;;;;;;5.43;3.00;;;;;;;;;;6242423;23;20047;-76
2023/10/05 04:46:10;;;;;;;3.67;3.15;;;;;;;;;;6242521;23;20106;-75
2023/10/05 04:48:38;;;;;;;3.00;2.70;;;;;;;;;;6242026;23;20023;-74
2023/10/05 04:51:07;;;;;;;5.78;3.08;;;;;;;;;;6243422;22;20024;-75
2023/10/05 04:53:38;;;;;;;5.95;3.47;;;;;;;;;;6218431;23;20452;-74
2023/10/05 04:56:22;;;;;;;3.78;3.10;;;;;;;;;;6216780;23;20020;-75
2023/10/05 05:02:21;;;;;;;3.95;2.75;;;;;;;;;;6242266;23;20039;-74
2023/10/05 05:05:21;;;;;;;4.88;3.30;;;;;;;;;;6218064;23;20100;-75
2023/10/05 05:07:40;;;;;;;3.38;3.05;;;;;;;;;;6220178;23;20107;-75
2023/10/05 05:10:12;;;;;;;3.45;2.80;;;;;;;;;;6240721;23;20055;-74
2023/10/05 05:12:38;;;;;;;4.63;2.95;;;;;;;;;;6190927;23;20015;-74
2023/10/05 05:15:05;;;;;;;3.67;3.13;;;;;;;;;;6216141;23;20011;-76
2023/10/05 05:17:32;;;;;;;4.35;2.85;;;;;;;;;;6216587;23;20023;-75
2023/10/05 05:20:11;;;;;;;;;;;;;;;;;;6217480;23;20012;-77
2023/10/05 05:23:04;;;;;;;3.90;2.97;;;;;;;;;;6205823;23;20229;-75
2023/10/05 05:25:31;;;;;;;3.17;2.58;;;;;;;;;;6215636;23;20019;-75
2023/10/05 05:28:01;;;;;;;4.78;3.40;;;;;;;;;;6191096;23;20016;-75
2023/10/05 05:30:29;;;;;;;3.90;3.20;;;;;;;;;;6242999;23;20028;-75
2023/10/05 05:33:10;;;;;;;6.13;2.95;;;;;;;;;;6190261;23;20468;-75
2023/10/05 05:35:42;;;;;;;3.45;2.50;;;;;;;;;;6194457;23;20019;-75
2023/10/05 05:38:23;;;;;;;6.18;3.08;;;;;;;;;;6215349;23;20020;-75
2023/10/05 05:40:53;;;;;;;2.97;2.72;;;;;;;;;;6165456;23;20726;-76
2023/10/05 05:43:22;;;;;;;4.53;3.55;;;;;;;;;;6141158;23;20012;-77
2023/10/05 05:45:52;;;;;;;6.60;2.78;;;;;;;;;;6166635;23;20369;-75
2023/10/05 05:48:26;;;;;;;7.57;3.55;;;;;;;;;;6165450;23;20008;-74
2023/10/05 05:50:53;;;;;;;4.13;3.72;;;;;;;;;;6215172;23;20033;-75
2023/10/05 05:53:46;;;;;;;5.78;4.13;;;;;;;;;;6165642;23;20008;-74
2023/10/05 05:56:16;;;;;;;7.70;4.28;;;;;;;;;;6189862;23;20019;-74
2023/10/05 05:58:46;;;;;;;8.67;3.90;;;;;;;;;;6142462;23;20016;-74
2023/10/05 06:01:14;;;;;;;5.35;3.90;;;;;;;;;;6189767;23;20083;-76
2023/10/05 06:03:44;;;;;;;6.10;3.50;;;;;;;;;;6215832;23;20019;-74
2023/10/05 06:06:19;;;;;;;9.82;3.83;;;;;;;;;;6165887;23;20043;-74
2023/10/05 06:08:50;;;;;;;7.40;3.23;;;;;;;;;;6190805;23;20026;-75
2023/10/05 06:11:16;;;;;;;7.88;4.05;;;;;;;;;;6140616;23;20059;-76
2023/10/05 06:13:45;;;;;;;6.20;3.65;;;;;;;;;;6141055;23;20055;-75
2023/10/05 06:16:14;;;;;;;4.70;3.65;;;;;;;;;;6214674;23;20044;-75
2023/10/05 06:18:39;;;;;;;6.57;3.40;;;;;;;;;;6166011;23;20408;-75
2023/10/05 06:21:06;;;;;;;4.20;3.63;;;;;;;;;;6242149;23;20019;-74
2023/10/05 06:23:33;;;;;;;9.63;4.78;;;;;;;;;;6163976;23;20034;-74
2023/10/05 06:25:59;;;;;;;13.00;8.77;;;;;;;;;;6165149;23;20016;-73
2023/10/05 06:28:26;;;;;;;13.65;8.27;;;;;;;;;;6191093;23;20012;-74
2023/10/05 06:30:53;;;;;;;12.43;5.28;;;;;;;;;;6232216;23;20028;-74
2023/10/05 06:33:26;;;;;;;7.47;4.53;;;;;;;;;;6218544;23;20176;-73
2023/10/05 06:35:52;;;;;;;7.18;3.25;;;;;;;;;;6222961;23;20012;-74
2023/10/05 06:38:18;;;;;;;4.88;3.35;;;;;;;;;;6200478;23;20008;-74
2023/10/05 06:40:48;;;;;;;5.20;3.45;;;;;;;;;;6199266;23;20074;-76
2023/10/05 06:43:26;;;;;;;9.63;3.45;;;;;;;;;;6194104;23;20017;-74
2023/10/05 06:45:54;;;;;;;4.40;3.50;;;;;;;;;;6240312;23;20020;-74
2023/10/05 06:48:21;;;;;;;3.33;2.70;;;;;;;;;;6190268;23;20624;-73
2023/10/05 06:50:47;;;;;;;5.55;3.75;;;;;;;;;;6165086;23;20201;-72
2023/10/05 06:53:13;;;;;;;4.70;3.45;;;;;;;;;;6189652;23;20465;-73
2023/10/05 06:55:39;;;;;;;5.63;3.58;;;;;;;;;;6241974;22;20063;-73
2023/10/05 06:58:05;;;;;;;12.48;3.42;;;;;;;;;;6240868;23;20091;-73
2023/10/05 07:00:31;;;;;;;4.07;2.70;;;;;;;;;;6241109;23;20012;-73
2023/10/05 07:03:06;;;;;;;4.45;3.40;;;;;;;;;;6241617;23;20008;-73
2023/10/05 07:05:32;;;;;;;7.82;3.03;;;;;;;;;;6240028;23;20019;-75
2023/10/05 07:07:58;;;;;;;4.57;2.53;;;;;;;;;;6241618;23;20012;-74
2023/10/05 07:10:27;;;;;;;10.27;3.35;;;;;;;;;;6214711;23;20107;-74
2023/10/05 07:12:53;;;;;;;10.20;2.80;;;;;;;;;;6241013;23;20044;-73
2023/10/05 07:15:19;;;;;;;3.35;3.00;;;;;;;;;;6240942;23;20012;-74
2023/10/05 07:17:46;;;;;;;5.10;2.53;;;;;;;;;;6235630;23;20022;-74
2023/10/05 07:20:12;;;;;;;4.93;2.55;;;;;;;;;;6212065;23;20475;-73
2023/10/05 07:22:39;;;;;;;3.85;2.85;;;;;;;;;;6239594;23;20030;-74
2023/10/05 07:25:05;;;;;;;4.80;2.90;;;;;;;;;;6241667;22;20051;-75
2023/10/05 07:27:31;;;;;;;4.55;2.50;;;;;;;;;;6214938;23;20034;-75
2023/10/05 13:13:17;;;;;;;2.78;2.55;;;;;;;;;;6210060;23;20614;-76
2023/10/05 13:15:44;;;;;;;3.80;2.80;;;;;;;;;;6185096;23;20020;-75
2023/10/05 13:18:19;;;;;;;3.05;2.30;;;;;;;;;;6210020;23;20119;-77
2023/10/05 13:20:49;;;;;;;4.10;2.40;;;;;;;;;;6207563;23;20039;-76
2023/10/05 13:23:19;;;;;;;2.77;1.97;;;;;;;;;;6182910;23;20012;-76
2023/10/05 13:25:48;;;;;;;2.55;2.28;;;;;;;;;;6159336;23;20540;-73
2023/10/05 13:28:16;;;;;;;2.38;2.17;;;;;;;;;;6185768;23;20016;-74
2023/10/05 13:30:43;;;;;;;1.98;1.83;;;;;;;;;;6186637;23;20476;-75
2023/10/05 13:33:22;;;;;;;1.83;1.73;;;;;;;;;;6214840;23;20087;-75
2023/10/05 13:35:50;;;;;;;2.33;2.10;;;;;;;;;;6163450;23;20012;-76
2023/10/05 13:38:17;;;;;;;3.05;2.50;;;;;;;;;;6214920;23;20013;-75
2023/10/05 13:43:47;;;;;;;3.33;2.65;;;;;;;;;;6121702;23;20009;-74
2023/10/05 13:46:16;;;;;;;2.25;2.10;;;;;;;;;;6197748;23;20152;-74
2023/10/05 13:48:42;;;;;;;4.00;2.40;;;;;;;;;;6214192;23;20009;-74
2023/10/05 13:51:12;;;;;;;4.18;2.97;;;;;;;;;;6193588;23;20039;-74
2023/10/05 13:53:42;;;;;;;4.07;2.53;;;;;;;;;;6219682;23;20008;-75
2023/10/05 13:56:09;;;;;;;4.90;3.60;;;;;;;;;;6188941;23;20430;-76
2023/10/05 13:58:35;;;;;;;4.95;3.00;;;;;;;;;;6212801;23;20147;-77
2023/10/05 14:01:03;;;;;;;2.58;2.25;;;;;;;;;;6162028;23;20467;-75
2023/10/05 14:03:29;;;;;;;3.63;3.08;;;;;;;;;;6161360;23;20008;-74
2023/10/05 14:06:04;;;;;;;3.53;3.10;;;;;;;;;;6211848;23;20016;-75
2023/10/05 14:08:31;;;;;;;3.85;2.85;;;;;;;;;;6188168;23;20009;-76
2023/10/05 14:11:01;;;;;;;5.28;3.42;;;;;;;;;;6217130;23;20060;-76
2023/10/05 14:13:30;;;;;;;4.47;3.47;;;;;;;;;;6241255;23;20016;-75
2023/10/05 14:16:00;;;;;;;5.45;3.33;;;;;;;;;;6242634;23;20094;-75
2023/10/05 14:18:27;;;;;;;4.78;3.15;;;;;;;;;;6241127;23;20015;-74
2023/10/05 14:20:53;;;;;;;8.48;3.60;;;;;;;;;;6215691;23;20026;-75
2023/10/05 14:23:19;;;;;;;6.85;3.60;;;;;;;;;;6216231;23;20040;-75
2023/10/05 14:25:46;;;;;;;10.80;3.63;;;;;;;;;;6239698;23;20012;-74
2023/10/05 14:28:17;;;;;;;6.28;3.10;;;;;;;;;;6216328;23;20015;-75
2023/10/05 14:30:47;;;;;;;3.33;2.80;;;;;;;;;;6215926;23;20020;-74
2023/10/05 14:33:22;;;;;;;5.95;3.50;;;;;;;;;;6243099;23;20019;-78
2023/10/05 14:35:50;;;;;;;4.55;3.13;;;;;;;;;;6242770;23;20451;-79
2023/10/05 14:38:17;;;;;;;7.80;3.72;;;;;;;;;;6243003;23;20020;-77
2023/10/05 14:40:44;;;;;;;8.77;5.00;;;;;;;;;;6240877;23;20012;-76
2023/10/05 14:43:20;;;;;;;7.65;4.82;;;;;;;;;;6241726;23;20032;-77
2023/10/05 14:45:48;;;;;;;7.05;4.70;;;;;;;;;;6242230;23;20095;-74
2023/10/05 14:48:14;;;;;;;9.10;5.65;;;;;;;;;;6241215;23;20016;-75
2023/10/05 14:50:40;;;;;;;10.52;5.90;;;;;;;;;;6215513;23;20396;-76
2023/10/05 14:53:11;;;;;;;9.15;4.47;;;;;;;;;;6242710;23;20057;-74
2023/10/05 14:55:37;;;;;;;;;;;;;;;;;;6241738;23;20020;-74
2023/10/05 14:58:08;;;;;;;6.13;5.47;;;;;;;;;;6243748;23;20365;-75
2023/10/05 15:00:35;;;;;;;11.80;6.53;;;;;;;;;;6244634;23;20075;-74
2023/10/05 15:03:01;;;;;;;6.55;5.47;;;;;;;;;;6244561;23;20483;-76
2023/10/05 15:05:27;;;;;;;18.77;11.07;;;;;;;;;;6243169;23;20016;-75
2023/10/05 15:07:58;;;;;;;10.57;9.50;;;;;;;;;;6245135;23;20409;-75
2023/10/05 15:10:25;;;;;;;12.73;8.18;;;;;;;;;;6247240;23;20027;-76
2023/10/05 15:12:52;;;;;;;11.48;7.70;;;;;;;;;;6217553;23;20031;-75
2023/10/05 15:15:19;;;;;;;11.43;6.25;;;;;;;;;;6243803;23;20375;-75
2023/10/05 15:17:46;;;;;;;10.32;6.88;;;;;;;;;;6192905;23;20012;-75
2023/10/05 15:20:14;;;;;;;8.25;6.75;;;;;;;;;;6243521;23;20012;-76
2023/10/05 15:22:42;;;;;;;9.98;6.57;;;;;;;;;;6190465;23;20023;-76
2023/10/05 15:25:08;;;;;;;10.82;6.95;;;;;;;;;;6215162;23;20020;-79
2023/10/05 15:27:35;;;;;;;8.15;6.15;;;;;;;;;;6241159;23;20016;-76
2023/10/05 15:30:01;;;;;;;12.05;6.03;;;;;;;;;;6215330;23;20482;-76
2023/10/05 15:32:29;;;;;;;10.65;6.20;;;;;;;;;;6240419;23;20018;-77
2023/10/05 15:34:56;;;;;;;8.93;6.53;;;;;;;;;;6242003;23;20036;-76
2023/10/05 15:37:22;;;;;;;11.55;6.45;;;;;;;;;;6240546;23;20020;-76
2023/10/05 15:39:49;;;;;;;11.63;7.63;;;;;;;;;;6240610;23;20035;-77
2023/10/05 15:42:16;;;;;;;7.85;6.93;;;;;;;;;;6241343;23;20483;-76
2023/10/05 15:44:42;;;;;;;12.27;7.38;;;;;;;;;;6246578;23;20012;-77
2023/10/05 15:47:08;;;;;;;12.02;8.25;;;;;;;;;;6219432;23;20018;-75
2023/10/05 15:49:34;;;;;;;10.40;7.60;;;;;;;;;;6246997;23;20016;-76
2023/10/05 15:52:00;;;;;;;12.52;8.07;;;;;;;;;;6246211;23;20020;-76
2023/10/05 15:54:26;;;;;;;10.02;6.82;;;;;;;;;;6216927;23;20666;-76
2023/10/05 15:56:54;;;;;;;10.52;6.60;;;;;;;;;;6239932;23;20016;-76
2023/10/05 15:59:20;;;;;;;10.27;7.20;;;;;;;;;;6241761;23;20008;-76
2023/10/05 16:01:49;;;;;;;10.32;6.85;;;;;;;;;;6238947;23;20023;-76
2023/10/05 16:04:15;;;;;;;13.80;8.43;;;;;;;;;;6190604;23;20494;-75
2023/10/05 16:06:43;;;;;;;11.27;8.38;;;;;;;;;;6214739;23;20004;-76
2023/10/05 16:09:09;;;;;;;11.95;6.93;;;;;;;;;;6241607;23;20078;-75
2023/10/05 16:11:35;;;;;;;12.15;6.10;;;;;;;;;;6241766;22;20403;-75
2023/10/05 16:14:05;;;;;;;12.55;7.45;;;;;;;;;;6239960;23;20357;-75
2023/10/05 16:16:34;;;;;;;12.32;6.38;;;;;;;;;;6242068;23;20020;-75
2023/10/05 16:19:00;;;;;;;14.20;7.40;;;;;;;;;;6214975;23;20063;-75
2023/10/05 16:21:31;;;;;;;10.90;7.40;;;;;;;;;;6214002;23;20024;-74
2023/10/05 16:23:58;;;;;;;;;;;;;;;;;;6240632;23;20087;-76
2023/10/05 16:26:24;;;;;;;13.20;7.53;;;;;;;;;;6242266;23;19916;-76
2023/10/05 16:28:50;;;;;;;12.95;7.28;;;;;;;;;;6240864;23;20049;-76
2023/10/05 16:31:20;;;;;;;12.13;7.05;;;;;;;;;;6240009;23;20026;-76
2023/10/05 16:33:49;;;;;;;15.80;7.22;;;;;;;;;;6239164;23;20019;-76
2023/10/05 16:36:17;;;;;;;10.93;7.05;;;;;;;;;;6239667;23;20016;-72
2023/10/05 16:38:44;;;;;;;15.55;8.43;;;;;;;;;;6239667;23;20523;-73
2023/10/05 16:41:13;;;;;;;18.80;8.75;;;;;;;;;;6236483;23;20012;-72
2023/10/05 16:43:45;;;;;;;12.02;7.53;;;;;;;;;;6241125;23;20017;-72
2023/10/05 16:46:11;;;;;;;13.75;6.82;;;;;;;;;;6238619;23;20531;-72
2023/10/05 16:48:38;;;;;;;11.40;5.63;;;;;;;;;;6236626;23;20063;-73
2023/10/05 16:51:05;;;;;;;22.58;12.88;;;;;;;;;;6238558;23;20024;-73
2023/10/05 16:53:33;;;;;;;18.70;6.20;;;;;;;;;;6238700;23;20015;-72
2023/10/05 16:55:59;;;;;;;10.88;5.45;;;;;;;;;;6212900;23;20039;-73
2023/10/05 16:58:25;;;;;;;12.93;5.90;;;;;;;;;;6215090;23;20058;-74
2023/10/05 17:00:51;;;;;;;7.70;5.35;;;;;;;;;;6244467;23;20326;-74
2023/10/05 17:03:19;;;;;;;8.88;5.53;;;;;;;;;;6243949;23;20062;-73
2023/10/05 17:05:48;;;;;;;10.15;5.63;;;;;;;;;;6240050;23;20059;-72
2023/10/05 17:08:20;;;;;;;10.82;5.20;;;;;;;;;;6240488;23;20037;-74
2023/10/05 17:10:46;;;;;;;8.70;5.80;;;;;;;;;;6239793;23;20115;-73
2023/10/05 17:13:12;;;;;;;18.75;5.90;;;;;;;;;;6241819;23;20073;-74
2023/10/05 17:15:38;;;;;;;8.95;5.70;;;;;;;;;;6242703;23;20437;-74
2023/10/05 17:18:05;;;;;;;9.65;4.93;;;;;;;;;;6247382;23;20063;-75
2023/10/05 17:20:32;;;;;;;6.00;5.20;;;;;;;;;;6253663;23;20491;-76
2023/10/05 17:22:58;;;;;;;11.05;5.00;;;;;;;;;;6227384;23;20008;-76
2023/10/05 17:25:25;;;;;;;10.85;6.05;;;;;;;;;;6245225;23;20020;-75
2023/10/05 17:27:52;;;;;;;11.25;5.63;;;;;;;;;;6214641;23;20018;-74
2023/10/05 17:30:18;;;;;;;9.02;6.13;;;;;;;;;;6237456;23;20020;-74
2023/10/05 17:32:46;;;;;;;9.38;5.70;;;;;;;;;;6213496;23;20471;-74
2023/10/05 17:35:21;;;;;;;10.15;5.53;;;;;;;;;;6240993;23;20012;-74
2023/10/05 17:37:49;;;;;;;7.32;5.78;;;;;;;;;;6240532;23;20338;-74
2023/10/05 17:40:15;;;;;;;8.82;4.93;;;;;;;;;;6240687;23;20095;-74
2023/10/05 17:42:41;;;;;;;10.02;5.70;;;;;;;;;;6240585;23;20464;-74
2023/10/05 17:45:09;;;;;;;8.18;5.18;;;;;;;;;;6214796;23;20449;-74
2023/10/05 17:47:36;;;;;;;8.63;5.15;;;;;;;;;;6215822;23;20098;-73
2023/10/05 17:50:02;;;;;;;8.40;5.45;;;;;;;;;;6240700;23;20023;-73
2023/10/05 17:52:32;;;;;;;10.88;5.35;;;;;;;;;;6240961;23;20086;-72
2023/10/05 17:54:59;;;;;;;10.20;5.22;;;;;;;;;;6242699;23;20011;-73
2023/10/05 17:57:26;;;;;;;8.40;5.20;;;;;;;;;;6240796;23;20370;-73
2023/10/05 17:59:52;;;;;;;9.15;5.78;;;;;;;;;;6240717;23;20012;-74
2023/10/05 18:02:20;;;;;;;8.00;5.43;;;;;;;;;;6241068;23;20016;-75
2023/10/05 18:04:45;;;;;;;7.50;5.28;;;;;;;;;;6241914;23;20540;-75
2023/10/05 18:07:12;;;;;;;6.57;5.22;;;;;;;;;;6240141;23;20098;-73
2023/10/05 18:09:38;;;;;;;7.25;5.47;;;;;;;;;;6242081;23;20008;-74
2023/10/05 18:12:07;;;;;;;8.55;5.22;;;;;;;;;;6239941;23;20475;-75
2023/10/05 18:14:34;;;;;;;12.90;5.85;;;;;;;;;;6242446;23;20020;-74
2023/10/05 18:17:00;;;;;;;9.90;5.05;;;;;;;;;;6240366;23;20016;-75
2023/10/05 18:19:26;;;;;;;7.22;5.28;;;;;;;;;;6240392;23;20070;-74
2023/10/05 18:21:54;;;;;;;7.95;5.30;;;;;;;;;;6241837;23;20008;-74
2023/10/05 18:24:20;;;;;;;6.88;5.15;;;;;;;;;;6240501;23;20012;-74
2023/10/05 18:26:49;;;;;;;6.50;5.18;;;;;;;;;;6241715;23;20008;-74
2023/10/05 18:29:16;;;;;;;6.75;4.53;;;;;;;;;;6242149;23;20024;-74
2023/10/05 18:31:42;;;;;;;17.70;5.25;;;;;;;;;;6190182;23;20107;-72
2023/10/05 18:34:08;;;;;;;6.15;4.65;;;;;;;;;;6213567;23;20095;-73
2023/10/05 18:36:34;;;;;;;6.18;4.72;;;;;;;;;;6239082;23;20368;-74
2023/10/05 18:39:00;;;;;;;9.30;4.72;;;;;;;;;;6240908;23;20008;-72
2023/10/05 18:41:26;;;;;;;5.55;4.50;;;;;;;;;;6239798;23;20016;-72
2023/10/05 18:43:53;;;;;;;10.52;3.80;;;;;;;;;;6239713;23;20012;-72
2023/10/05 18:46:19;;;;;;;6.97;4.65;;;;;;;;;;6241459;23;20016;-72
2023/10/05 18:48:45;;;;;;;5.78;4.75;;;;;;;;;;6214667;23;20098;-73
2023/10/05 18:51:11;;;;;;;6.35;4.20;;;;;;;;;;6240411;23;20031;-72
2023/10/05 18:53:37;;;;;;;6.55;4.57;;;;;;;;;;6239774;23;20012;-72
2023/10/05 18:56:04;;;;;;;6.82;4.78;;;;;;;;;;6240956;23;20062;-73
2023/10/05 18:58:33;;;;;;;9.30;4.57;;;;;;;;;;6241425;23;20008;-74
2023/10/05 19:00:59;;;;;;;5.35;4.32;;;;;;;;;;6241325;23;20015;-72
2023/10/05 19:03:29;;;;;;;3.40;3.00;;;;;;;;;;6240181;23;20015;-72
2023/10/05 19:05:56;;;;;;;6.15;4.22;;;;;;;;;;6239230;23;20035;-73
2023/10/05 19:08:22;;;;;;;7.03;3.90;;;;;;;;;;6241499;23;20012;-73
2023/10/05 19:10:48;;;;;;;4.20;2.88;;;;;;;;;;6189095;23;20024;-73
2023/10/05 19:13:14;;;;;;;4.72;3.55;;;;;;;;;;6241072;23;20019;-73
2023/10/05 19:15:40;;;;;;;5.22;3.55;;;;;;;;;;6214645;23;20012;-73
2023/10/05 19:18:08;;;;;;;5.65;3.33;;;;;;;;;;6241200;23;20452;-72
2023/10/05 19:20:37;;;;;;;4.90;3.25;;;;;;;;;;6239091;23;20074;-73
2023/10/05 19:23:04;;;;;;;4.47;3.50;;;;;;;;;;6214350;23;20070;-74
2023/10/05 19:25:30;;;;;;;6.63;3.47;;;;;;;;;;6239039;23;20016;-73
2023/10/05 19:27:55;;;;;;;4.22;3.63;;;;;;;;;;6239280;23;20451;-73
2023/10/05 19:30:21;;;;;;;4.20;2.85;;;;;;;;;;6239253;23;20023;-72
2023/10/05 19:32:47;;;;;;;6.57;3.65;;;;;;;;;;6241286;23;20043;-72
2023/10/05 19:35:17;;;;;;;8.93;4.00;;;;;;;;;;6213711;23;20020;-73
2023/10/05 19:37:42;;;;;;;9.52;3.90;;;;;;;;;;6239224;23;20012;-72
2023/10/05 19:40:09;;;;;;;5.85;4.35;;;;;;;;;;6240475;23;20481;-76
2023/10/05 19:42:35;;;;;;;5.40;3.92;;;;;;;;;;6242431;23;20083;-73
2023/10/05 19:45:01;;;;;;;4.30;3.13;;;;;;;;;;6242088;23;20062;-73
2023/10/05 19:47:31;;;;;;;5.47;3.50;;;;;;;;;;6242415;23;20572;-73
2023/10/05 19:49:56;;;;;;;4.78;3.55;;;;;;;;;;6241996;23;20047;-73
2023/10/05 19:52:22;;;;;;;5.00;3.00;;;;;;;;;;6241409;23;20103;-73
2023/10/05 19:54:49;;;;;;;8.50;4.13;;;;;;;;;;6245467;22;20388;-73
2023/10/05 19:57:15;;;;;;;5.88;3.53;;;;;;;;;;6244058;23;20082;-73
2023/10/05 19:59:41;;;;;;;6.80;3.90;;;;;;;;;;6237778;23;20011;-73
2023/10/05 20:02:08;;;;;;;5.47;4.30;;;;;;;;;;6238939;23;20087;-73
2023/10/05 20:04:34;;;;;;;4.93;4.43;;;;;;;;;;6241197;23;20229;-73
2023/10/05 20:07:02;;;;;;;6.60;4.88;;;;;;;;;;6240304;23;20012;-73
2023/10/05 20:09:33;;;;;;;5.40;4.25;;;;;;;;;;6240507;23;20012;-72
2023/10/05 20:12:00;;;;;;;7.72;4.40;;;;;;;;;;6238964;23;20023;-72
2023/10/05 20:14:26;;;;;;;8.38;4.45;;;;;;;;;;6240073;23;20012;-72
2023/10/05 20:16:52;;;;;;;5.85;4.10;;;;;;;;;;6238567;23;20040;-70
2023/10/05 20:19:18;;;;;;;8.48;3.65;;;;;;;;;;6239521;23;20008;-71
2023/10/05 20:21:45;;;;;;;6.85;3.80;;;;;;;;;;6239486;23;20019;-71
2023/10/05 20:24:12;;;;;;;6.13;3.75;;;;;;;;;;6239592;23;20103;-71
2023/10/05 20:26:37;;;;;;;6.70;3.75;;;;;;;;;;6238065;23;20016;-71
2023/10/05 20:29:04;;;;;;;6.90;4.80;;;;;;;;;;6239356;23;20023;-71
2023/10/05 20:31:30;;;;;;;5.72;4.07;;;;;;;;;;6237961;23;20020;-71
2023/10/05 20:33:56;;;;;;;4.13;3.65;;;;;;;;;;6238987;23;20461;-71
2023/10/05 20:36:23;;;;;;;6.72;4.03;;;;;;;;;;6240960;23;20364;-72
2023/10/05 20:38:49;;;;;;;8.32;3.85;;;;;;;;;;6241440;23;20496;-71
2023/10/05 20:41:16;;;;;;;7.00;3.40;;;;;;;;;;6240080;23;20015;-71
2023/10/05 20:43:42;;;;;;;5.75;3.90;;;;;;;;;;6239121;23;20480;-70
2023/10/05 20:46:12;;;;;;;6.13;4.00;;;;;;;;;;6241460;23;20012;-71
2023/10/05 20:48:38;;;;;;;5.10;4.23;;;;;;;;;;6241680;23;20009;-70
2023/10/05 20:51:04;;;;;;;6.30;3.88;;;;;;;;;;6214874;23;20267;-70
2023/10/05 20:53:31;;;;;;;8.20;4.07;;;;;;;;;;6241336;23;20054;-71